KICR

Winner Regional Airport

Winner, South Dakota, USA
METAR KICR 271153Z AUTO 19013G20KT 10SM CLR 23/12 A2974 RMK AO2 SLP050 T02330122 10250 20228 53005
Observed Flight Rules
May-27 @ 11:53 UTC (14 minutes ago) Visual Flight Rules
Wind Visibility Clouds
190° at 13 knots
 Gusting to 20 knots
10 miles
  • Clear skies
Temperatures Readings
Current 23°C / 73°F
Dewpoint 12°C / 54°F
Humidity 50%
Altimeter 29.74" Hg
Pressure 1005 hPa
Elevation 621
METAR KICR 271153Z AUTO 19013G20KT 10SM CLR 23/12 A2974 RMK AO2 SLP050 T02330122 10250 20228 53005
Observed Flight Rules
May-27 @ 11:53 UTC
(14 minutes ago)
VFR
Wind Visibility
190° at 13 knots
 Gusting to 20 knots
10 miles
Clouds
  • Clear skies
Temperature Dewpoint
23°C / 73°F 12°C / 54°F
Humidity Altimeter Pressure
50% 29.74" Hg 1005 hPa